Current Conditions
Overcast
Conditions



Pressure
1034.92 (hPa) - 30.56 (inHG)
Visibility

10.0 (km) - 6.2 (miles)
Temperature
6  °C
Temperature
2  °C
Dewpoint
76  %
 Humidity
Wind Speed
0.9  m/s
2  mph
3  km/h
2  kts
Wind Direction
N
45°
E
90°
135°
S
180°
225°
W
270°
315°
Calm

Due North
Airport Data
EBDT
Schaffen Airfield
Metar :EBDT 231525Z AUTO VRB02KT 9999 OVC028/// 06/02 Q1035 BLU
Sun 23rd January 16:25 pm
Raw Metar Info
Raw METAR is the most common format in the world for the transmission of observational weather data. It is highly standardized through the International Civil Aviation Organization (ICAO), which allows it to be understood throughout most of the world.
API Info
Data Provided by
https://www.checkwx.com/weather/EBDT

Aviation Weather providing METAR, TAF, AIRMET, SIGMET and OUTLOOK Weather Reports
© Info
CSS/SVG/PHP scripts were developed by weather34 for use in the weather34 template © 2015-2022

Guide Info provided by Metar-Wikipedia